Terminal Aerodrome Forecast
Issued by NWS Birmingham, AL

Home | Current Version | Previous Version | Text Only | Print | Product List | Glossary On
Versions: 1 2 3 4 5 6 7 8 9 10 11 12 13 14 15 16 17 18
000
FTUS44 KBMX 281738
TAFBHM
TAF
KBHM 281738Z 2818/2918 25010KT P6SM BKN040
     FM290300 21006KT P6SM VCTS SCT025CB BKN040
     FM291200 22005KT 6SM BR BKN025
     FM291500 22004KT P6SM BKN050=

USA.gov is the U.S. government's official web portal to all federal, state and local government web resources and services.